Time;durP1;ratioP1;P1;durP2;ratioP2;P2;SDS_P1;SDS_P2;PMS_P1;PMS_P2;Temp;Humidity;BMP_temperature;BMP_pressure;BME280_temperature;BME280_humidity;BME280_pressure;Samples;Min_cycle;Max_cycle;Signal;HPM_P1;HPM_P2
2022/10/02 00:01:31;;;;;;;21.52;3.53;;;14.80;99.90;;;;;;5072333;28;20267;-58
2022/10/02 00:03:59;;;;;;;34.05;3.45;;;14.80;99.90;;;;;;5072048;28;20199;-59
2022/10/02 00:06:37;;;;;;;25.73;3.00;;;14.90;99.90;;;;;;5056487;28;20267;-58
2022/10/02 00:09:06;;;;;;;19.27;2.78;;;14.70;99.90;;;;;;5065835;28;20169;-58
2022/10/02 00:11:44;;;;;;;37.22;3.38;;;14.80;99.90;;;;;;5064881;28;20216;-58
2022/10/02 00:14:16;;;;;;;22.05;2.63;;;14.70;99.90;;;;;;5071061;28;20207;-59
2022/10/02 00:16:48;;;;;;;27.58;3.05;;;14.80;99.90;;;;;;5056393;28;20551;-58
2022/10/02 00:19:18;;;;;;;25.67;4.25;;;14.70;99.90;;;;;;5068429;28;20176;-58
2022/10/02 00:22:20;;;;;;;20.75;2.58;;;14.80;99.90;;;;;;5071581;28;20249;-58
2022/10/02 00:24:54;;;;;;;18.35;2.22;;;14.60;99.90;;;;;;5052667;28;20177;-58
2022/10/02 00:27:53;;;;;;;18.92;2.85;;;14.70;99.90;;;;;;5053073;28;20169;-58
2022/10/02 00:30:19;;;;;;;22.90;2.78;;;14.80;99.90;;;;;;5062268;28;20191;-58
2022/10/02 00:33:00;;;;;;;21.02;2.75;;;14.80;99.90;;;;;;5071600;28;20180;-58
2022/10/02 00:35:51;;;;;;;22.80;2.85;;;15.00;99.90;;;;;;5071172;28;20733;-58
2022/10/02 00:38:20;;;;;;;21.30;2.65;;;15.10;99.90;;;;;;5056029;28;20191;-58
2022/10/02 00:41:07;;;;;;;33.00;3.63;;;14.80;99.90;;;;;;5052114;28;20176;-58
2022/10/02 00:43:49;;;;;;;25.38;2.50;;;14.80;99.90;;;;;;5062621;28;20734;-58
2022/10/02 00:46:15;;;;;;;29.60;3.40;;;;;;;;;;5071964;28;20631;-58
2022/10/02 00:48:47;;;;;;;25.48;2.65;;;14.80;99.90;;;;;;5061240;28;20222;-59
2022/10/02 00:51:37;;;;;;;25.80;2.67;;;14.70;99.90;;;;;;5058517;28;20169;-58
2022/10/02 00:54:31;;;;;;;21.98;2.40;;;14.80;99.90;;;;;;5063281;28;20606;-58
2022/10/02 00:57:27;;;;;;;21.40;2.63;;;14.80;99.90;;;;;;5055062;28;20172;-58
2022/10/02 00:59:53;;;;;;;25.63;2.83;;;;;;;;;;5070913;28;20251;-58
2022/10/02 01:02:25;;;;;;;19.88;2.95;;;14.90;99.90;;;;;;5070598;28;20180;-58
2022/10/02 01:04:52;;;;;;;28.13;2.90;;;14.90;99.90;;;;;;5071069;28;20184;-57
2022/10/02 01:07:18;;;;;;;17.80;2.80;;;;;;;;;;5070732;28;20203;-57
2022/10/02 01:09:44;;;;;;;28.27;3.22;;;15.00;99.90;;;;;;5070514;28;20216;-58
2022/10/02 01:12:10;;;;;;;23.63;3.53;;;14.70;99.90;;;;;;5070981;28;20184;-58
2022/10/02 01:14:38;;;;;;;31.38;3.15;;;14.90;99.90;;;;;;5064933;28;20208;-57
2022/10/02 01:17:06;;;;;;;20.02;2.63;;;14.80;99.90;;;;;;5062655;28;20177;-58
2022/10/02 01:19:38;;;;;;;27.63;2.97;;;14.80;99.90;;;;;;5061741;28;20251;-58
2022/10/02 01:22:29;;;;;;;20.95;2.40;;;14.90;99.90;;;;;;5066546;28;20170;-57
2022/10/02 01:24:56;;;;;;;19.80;2.58;;;15.00;99.90;;;;;;5066376;28;20182;-57
2022/10/02 01:27:22;;;;;;;19.65;2.65;;;14.80;99.90;;;;;;5070271;28;20257;-57
2022/10/02 01:29:54;;;;;;;27.70;3.60;;;14.80;99.90;;;;;;5067099;28;20181;-57
2022/10/02 01:32:24;;;;;;;26.05;2.85;;;14.60;99.90;;;;;;5055126;28;20177;-57
2022/10/02 01:34:51;;;;;;;25.27;2.97;;;14.90;99.90;;;;;;5063688;28;20208;-57
2022/10/02 01:37:17;;;;;;;23.30;2.88;;;14.90;99.90;;;;;;5067206;28;20191;-57
2022/10/02 01:39:44;;;;;;;24.25;3.28;;;14.50;99.90;;;;;;5071176;28;20251;-57
2022/10/02 01:42:10;;;;;;;30.17;3.15;;;14.70;99.90;;;;;;5070151;28;20267;-57
2022/10/02 01:44:36;;;;;;;22.67;3.05;;;;;;;;;;5051014;28;20192;-57
2022/10/02 01:47:14;;;;;;;29.38;3.53;;;14.90;99.90;;;;;;5055772;28;20169;-56
2022/10/02 01:49:40;;;;;;;17.30;2.55;;;;;;;;;;5063540;28;20184;-56
2022/10/02 01:52:28;;;;;;;16.92;2.72;;;14.80;99.90;;;;;;5069716;28;20262;-57
2022/10/02 01:55:16;;;;;;;24.15;3.20;;;14.70;99.90;;;;;;5070260;28;20205;-56
2022/10/02 01:57:50;;;;;;;26.23;3.47;;;14.70;99.90;;;;;;5051155;28;20177;-57
2022/10/02 02:00:22;;;;;;;25.42;3.30;;;15.00;99.90;;;;;;5065630;28;20191;-57
2022/10/02 02:03:16;;;;;;;20.98;3.33;;;15.00;99.90;;;;;;5063394;28;20527;-57
2022/10/02 02:06:07;;;;;;;26.88;3.25;;;14.70;99.90;;;;;;5050810;28;20176;-57
2022/10/02 02:08:44;;;;;;;16.20;2.33;;;14.80;99.90;;;;;;5066239;28;20947;-57
2022/10/02 02:11:10;;;;;;;27.33;3.55;;;;;;;;;;5050610;28;20282;-57
2022/10/02 02:13:48;;;;;;;23.23;3.35;;;13.30;99.90;;;;;;5066200;28;20204;-57
2022/10/02 02:16:26;;;;;;;25.52;3.08;;;14.90;99.90;;;;;;5070248;28;20560;-57
2022/10/02 02:19:20;;;;;;;23.20;3.10;;;14.80;99.90;;;;;;5060168;28;20516;-57
2022/10/02 02:22:11;;;;;;;29.30;3.58;;;14.80;99.90;;;;;;5061009;28;20520;-57
2022/10/02 02:24:55;;;;;;;21.55;3.17;;;14.80;99.90;;;;;;5063737;28;20176;-57
2022/10/02 02:27:28;;;;;;;22.10;2.83;;;14.80;99.90;;;;;;5069015;28;20408;-56
2022/10/02 02:30:00;;;;;;;30.48;4.00;;;14.50;99.90;;;;;;5070565;28;20283;-59
2022/10/02 02:32:29;;;;;;;20.75;3.30;;;14.70;99.90;;;;;;5069893;28;20185;-57
2022/10/02 02:35:04;;;;;;;20.40;3.05;;;14.70;99.90;;;;;;5065938;28;20231;-57
2022/10/02 02:37:35;;;;;;;25.00;3.03;;;14.50;99.90;;;;;;5068903;28;20172;-57
2022/10/02 02:40:17;;;;;;;19.55;2.88;;;14.60;99.90;;;;;;5052497;28;20189;-57
2022/10/02 02:43:09;;;;;;;24.05;3.05;;;14.60;99.90;;;;;;5055110;28;20176;-56
2022/10/02 02:45:46;;;;;;;21.23;3.35;;;14.60;99.90;;;;;;5067008;28;20249;-56
2022/10/02 02:48:24;;;;;;;25.63;4.03;;;14.60;99.90;;;;;;5063193;28;20191;-57
2022/10/02 02:50:58;;;;;;;26.77;3.50;;;14.50;99.90;;;;;;5074335;28;20160;-56
2022/10/02 02:53:36;;;;;;;21.13;3.60;;;14.40;99.90;;;;;;5067242;28;20180;-56
2022/10/02 02:56:07;;;;;;;25.92;3.33;;;14.60;99.90;;;;;;5073355;28;20184;-56
2022/10/02 02:58:55;;;;;;;20.80;3.92;;;14.30;99.90;;;;;;5054542;28;20173;-56
2022/10/02 03:01:21;;;;;;;19.48;3.38;;;14.50;99.90;;;;;;5065565;28;20199;-56
2022/10/02 03:03:47;;;;;;;22.17;3.95;;;;;;;;;;5058413;28;20683;-56
2022/10/02 03:06:16;;;;;;;35.03;4.00;;;14.40;99.90;;;;;;5056522;28;20268;-56
2022/10/02 03:08:42;;;;;;;25.95;3.60;;;14.30;99.90;;;;;;5073416;28;20180;-56
2022/10/02 03:11:20;;;;;;;28.50;3.38;;;14.40;99.90;;;;;;5073129;28;20219;-57
2022/10/02 03:13:48;;;;;;;28.70;3.83;;;14.40;99.90;;;;;;5060072;28;20200;-57
2022/10/02 03:16:22;;;;;;;30.77;3.58;;;14.30;99.90;;;;;;5071008;28;20658;-57
2022/10/02 03:18:59;;;;;;;30.33;4.20;;;14.30;99.90;;;;;;5065905;28;20184;-58
2022/10/02 03:21:31;;;;;;;29.63;3.97;;;14.50;99.90;;;;;;5071881;28;20187;-57
2022/10/02 03:24:02;;;;;;;24.77;3.85;;;14.40;99.90;;;;;;5061895;28;20176;-57
2022/10/02 03:26:44;;;;;;;22.08;3.58;;;14.40;99.90;;;;;;5073496;28;20244;-57
2022/10/02 03:29:16;;;;;;;29.08;4.32;;;14.10;99.90;;;;;;5072837;28;20212;-56
2022/10/02 03:31:43;;;;;;;19.85;3.58;;;16.00;99.90;;;;;;5072852;28;20260;-57
2022/10/02 03:34:09;;;;;;;20.83;3.70;;;;;;;;;;5072766;28;20196;-57
2022/10/02 03:36:35;;;;;;;27.15;3.92;;;14.40;99.90;;;;;;5072790;28;20188;-57
2022/10/02 03:39:03;;;;;;;20.73;3.95;;;14.30;99.90;;;;;;5059984;28;20177;-58
2022/10/02 03:41:29;;;;;;;28.08;3.40;;;;;;;;;;5053327;28;20596;-57
2022/10/02 03:43:55;;;;;;;25.60;3.67;;;;;;;;;;5058497;28;20177;-57
2022/10/02 03:46:21;;;;;;;27.05;3.85;;;14.10;99.90;;;;;;5072285;28;20618;-58
2022/10/02 03:48:47;;;;;;;30.20;4.07;;;;;;;;;;5072682;28;20201;-58
2022/10/02 03:51:13;;;;;;;26.85;4.38;;;14.10;99.90;;;;;;5072810;28;20249;-56
2022/10/02 03:53:39;;;;;;;28.15;3.88;;;14.10;99.90;;;;;;5058490;28;20201;-56
2022/10/02 03:56:16;;;;;;;33.67;4.45;;;14.30;99.90;;;;;;5052296;28;20227;-56
2022/10/02 03:58:47;;;;;;;35.35;4.40;;;14.00;99.90;;;;;;5066467;28;20241;-56
2022/10/02 04:01:36;;;;;;;21.73;3.92;;;12.20;99.90;;;;;;5072405;28;20180;-57
2022/10/02 04:04:28;;;;;;;28.13;3.72;;;14.30;99.90;;;;;;5072119;28;20263;-57
2022/10/02 04:07:01;;;;;;;22.63;3.67;;;14.10;99.90;;;;;;5067436;28;20326;-58
2022/10/02 04:09:34;;;;;;;22.02;3.65;;;14.10;99.90;;;;;;5064100;28;20374;-56
2022/10/02 04:12:31;;;;;;;29.17;4.00;;;14.00;99.90;;;;;;5071978;28;20204;-56
2022/10/02 04:15:04;;;;;;;26.40;5.07;;;13.70;99.90;;;;;;5070205;28;20216;-56
2022/10/02 04:18:05;;;;;;;24.15;3.97;;;13.90;99.90;;;;;;5069331;28;20275;-56
2022/10/02 04:20:50;;;;;;;24.27;4.55;;;14.00;99.90;;;;;;5058204;28;20682;-57
2022/10/02 04:23:41;;;;;;;29.63;3.90;;;14.20;99.90;;;;;;5069652;28;20200;-56
2022/10/02 04:26:16;;;;;;;29.52;4.00;;;14.00;99.90;;;;;;5054973;28;20184;-57
2022/10/02 04:28:49;;;;;;;21.10;3.77;;;14.00;99.90;;;;;;5071343;28;20670;-57
2022/10/02 04:31:15;;;;;;;28.15;3.55;;;;;;;;;;5070970;28;20601;-57
2022/10/02 04:33:41;;;;;;;28.57;4.13;;;;;;;;;;5071630;28;20209;-56
2022/10/02 04:36:19;;;;;;;26.67;4.10;;;14.00;99.90;;;;;;5071447;28;20189;-57
2022/10/02 04:38:58;;;;;;;47.37;4.03;;;13.90;99.90;;;;;;5066700;28;20169;-56
2022/10/02 04:41:32;;;;;;;24.08;3.25;;;13.90;99.90;;;;;;5052207;28;20189;-58
2022/10/02 04:43:58;;;;;;;33.93;3.67;;;;;;;;;;5069690;28;20175;-57
2022/10/02 04:46:42;;;;;;;16.70;2.88;;;13.80;99.90;;;;;;5071988;28;20183;-57
2022/10/02 04:49:58;;;;;;;19.20;3.30;;;13.60;99.90;;;;;;5059770;28;20233;-57
2022/10/02 04:52:34;;;;;;;20.70;3.13;;;13.60;99.90;;;;;;4989684;28;20544;-57
2022/10/02 04:55:00;;;;;;;21.07;3.37;;;13.90;99.90;;;;;;4984112;28;20246;-57
2022/10/02 04:58:17;;;;;;;14.95;2.63;;;13.80;99.90;;;;;;5020440;28;20189;-58
2022/10/02 05:01:03;;;;;;;23.90;3.47;;;13.60;99.90;;;;;;5028920;28;20178;-58
2022/10/02 05:03:29;;;;;;;17.70;2.50;;;;;;;;;;5068093;28;20249;-58
2022/10/02 05:06:04;;;;;;;19.53;2.50;;;13.50;99.90;;;;;;5070630;28;20176;-58
2022/10/02 05:08:30;;;;;;;16.88;2.70;;;;;;;;;;5069994;28;20199;-58
2022/10/02 05:11:34;;;;;;;26.30;3.40;;;13.50;99.90;;;;;;5059559;28;20686;-62
2022/10/02 05:14:33;;;;;;;25.55;3.00;;;13.40;99.90;;;;;;5069578;28;20283;-58
2022/10/02 05:17:39;;;;;;;17.47;2.60;;;13.40;99.90;;;;;;5056948;28;20632;-58
2022/10/02 05:20:39;;;;;;;20.40;3.20;;;13.40;99.90;;;;;;5070968;28;20700;-58
2022/10/02 05:23:11;;;;;;;23.87;2.90;;;13.40;99.90;;;;;;5070773;28;20185;-58
2022/10/02 05:26:01;;;;;;;21.37;2.93;;;13.30;99.90;;;;;;5070325;28;20261;-58
2022/10/02 05:29:09;;;;;;;17.90;2.83;;;13.30;99.90;;;;;;5070067;28;20168;-58
2022/10/02 05:31:44;;;;;;;18.47;3.00;;;13.30;99.90;;;;;;5051591;28;20177;-58
2022/10/02 05:34:23;;;;;;;18.47;2.50;;;13.30;99.90;;;;;;5057423;28;20283;-58
2022/10/02 05:36:58;;;;;;;16.47;2.13;;;13.00;99.90;;;;;;5071055;28;20626;-58
2022/10/02 05:39:32;;;;;;;10.93;2.30;;;12.90;99.90;;;;;;5070865;28;20175;-58
2022/10/02 05:42:26;;;;;;;21.67;2.70;;;13.20;99.90;;;;;;5059422;28;20676;-58
2022/10/02 05:45:01;;;;;;;18.83;2.50;;;13.10;99.90;;;;;;5062013;28;20173;-58
2022/10/02 05:47:32;;;;;;;23.30;2.60;;;13.10;99.90;;;;;;5056675;28;20183;-58
2022/10/02 05:50:05;;;;;;;21.07;2.13;;;12.90;99.90;;;;;;5071085;28;20245;-58
2022/10/02 05:52:39;;;;;;;17.37;2.67;;;13.00;99.90;;;;;;5064101;28;20173;-58
2022/10/02 05:55:20;;;;;;;16.07;2.50;;;12.90;99.90;;;;;;5065961;28;20298;-57
2022/10/02 05:57:51;;;;;;;19.67;2.50;;;13.00;99.90;;;;;;5070030;28;20729;-58
2022/10/02 06:00:36;;;;;;;14.30;2.30;;;12.70;99.90;;;;;;5053727;28;20689;-58
2022/10/02 06:03:21;;;;;;;17.30;2.77;;;12.90;99.90;;;;;;5050822;28;20263;-57
2022/10/02 06:06:15;;;;;;;17.43;2.77;;;12.90;99.90;;;;;;5049350;28;20502;-58
2022/10/02 06:08:41;;;;;;;13.60;2.17;;;12.80;99.90;;;;;;5069662;28;20176;-57
2022/10/02 06:11:32;;;;;;;16.60;2.50;;;12.80;99.90;;;;;;5069102;28;20208;-58
2022/10/02 06:14:36;;;;;;;14.23;2.33;;;12.60;99.90;;;;;;5064987;28;20257;-57
2022/10/02 06:17:07;;;;;;;20.90;2.33;;;12.60;99.90;;;;;;5049052;28;20187;-57
2022/10/02 06:19:42;;;;;;;17.73;2.50;;;12.70;99.90;;;;;;5066543;28;20204;-58
2022/10/02 06:22:18;;;;;;;14.37;2.20;;;12.70;99.90;;;;;;5074083;28;20216;-57
2022/10/02 06:24:55;;;;;;;20.00;2.20;;;12.70;99.90;;;;;;5072129;28;20211;-57
2022/10/02 06:27:40;;;;;;;15.03;2.03;;;12.70;99.90;;;;;;5073916;28;20638;-58
2022/10/02 06:30:11;;;;;;;16.57;2.27;;;12.80;99.90;;;;;;5074125;28;20181;-57
2022/10/02 06:32:45;;;;;;;12.37;2.03;;;12.60;99.90;;;;;;5072926;28;20184;-57
2022/10/02 06:35:14;;;;;;;13.73;2.23;;;12.70;99.90;;;;;;5074578;28;20220;-57
2022/10/02 06:37:55;;;;;;;13.77;2.80;;;12.70;99.90;;;;;;5072288;28;20260;-57
2022/10/02 06:40:21;;;;;;;11.10;2.10;;;;;;;;;;5066532;28;20176;-60
2022/10/02 06:43:20;;;;;;;16.27;3.00;;;12.80;99.90;;;;;;5073197;28;20173;-57
2022/10/02 06:46:48;;;;;;;17.23;2.37;;;12.50;99.90;;;;;;5046403;28;20627;-57
2022/10/02 06:49:32;;;;;;;18.87;2.30;;;11.90;99.90;;;;;;4996083;28;20259;-56
2022/10/02 06:52:16;;;;;;;14.43;2.47;;;12.50;99.90;;;;;;4996117;28;20193;-56
2022/10/02 06:55:06;;;;;;;20.90;2.90;;;12.70;99.90;;;;;;5049617;28;20222;-56
2022/10/02 06:57:44;;;;;;;23.40;2.97;;;12.60;99.90;;;;;;5070325;28;20349;-56
2022/10/02 07:00:15;;;;;;;15.10;2.80;;;12.70;99.90;;;;;;5053688;28;20181;-56
2022/10/02 07:02:55;;;;;;;13.07;2.00;;;12.50;99.90;;;;;;5058552;28;20251;-56
2022/10/02 07:05:43;;;;;;;10.50;1.90;;;12.60;99.90;;;;;;5054146;28;20230;-56
2022/10/02 07:08:10;;;;;;;17.17;2.37;;;;;;;;;;5062541;28;20248;-57
2022/10/02 07:10:37;;;;;;;15.43;2.03;;;;;;;;;;5064063;28;20224;-56
2022/10/02 07:13:03;;;;;;;7.57;1.87;;;;;;;;;;5060290;28;20181;-56
2022/10/02 07:15:48;;;;;;;15.57;2.23;;;12.60;99.90;;;;;;5061367;28;20693;-58
2022/10/02 07:19:01;;;;;;;17.50;2.13;;;12.40;99.90;;;;;;5063678;28;20338;-57
2022/10/02 07:21:37;;;;;;;11.43;2.00;;;12.50;99.90;;;;;;5022716;28;20184;-58
2022/10/02 07:24:09;;;;;;;18.57;2.03;;;12.60;99.90;;;;;;5059310;28;20541;-58
2022/10/02 07:27:02;;;;;;;13.50;2.10;;;12.50;99.90;;;;;;5052747;28;20175;-58
2022/10/02 07:29:40;;;;;;;18.17;2.40;;;12.50;99.90;;;;;;5052336;28;20181;-58
2022/10/02 07:32:27;;;;;;;20.57;2.80;;;12.30;99.90;;;;;;5057011;28;20627;-58
2022/10/02 07:35:07;;;;;;;17.43;2.37;;;12.60;99.90;;;;;;5063878;28;20205;-58
2022/10/02 07:38:02;;;;;;;8.47;2.23;;;12.40;99.90;;;;;;5053180;28;20169;-58
2022/10/02 07:40:46;;;;;;;19.23;3.00;;;12.60;99.90;;;;;;5053251;28;20181;-58
2022/10/02 07:43:39;;;;;;;16.33;2.70;;;12.70;99.90;;;;;;5052349;28;20169;-59
2022/10/02 07:46:25;;;;;;;15.43;2.90;;;12.40;99.90;;;;;;5053187;28;20173;-58
2022/10/02 07:49:29;;;;;;;14.33;2.57;;;12.70;99.90;;;;;;5061400;28;20176;-57
2022/10/02 07:52:15;;;;;;;10.47;2.30;;;12.80;99.90;;;;;;4995155;28;20186;-58
2022/10/02 07:54:51;;;;;;;9.27;2.30;;;12.70;99.90;;;;;;5057284;28;20269;-57
2022/10/02 07:57:21;;;;;;;12.93;1.97;;;11.90;99.90;;;;;;5067778;28;20333;-57
2022/10/02 07:59:50;;;;;;;17.00;2.40;;;12.90;99.90;;;;;;5072437;28;20241;-57
2022/10/02 08:02:25;;;;;;;14.80;2.10;;;12.80;99.90;;;;;;5072731;28;20278;-57
2022/10/02 08:04:56;;;;;;;9.47;1.87;;;12.80;99.90;;;;;;5072757;28;20171;-58
2022/10/02 08:07:22;;;;;;;13.57;2.23;;;12.80;99.90;;;;;;5072759;28;20172;-61
2022/10/02 08:09:51;;;;;;;7.17;1.70;;;12.60;99.90;;;;;;5072328;28;20185;-58
2022/10/02 08:12:35;;;;;;;15.80;2.40;;;12.80;99.90;;;;;;5071895;28;20231;-57
2022/10/02 08:15:01;;;;;;;14.40;2.33;;;12.80;99.90;;;;;;5072185;28;20224;-58
2022/10/02 08:17:28;;;;;;;10.10;2.03;;;;;;;;;;5072126;28;20196;-58
2022/10/02 08:20:00;;;;;;;16.17;2.30;;;13.00;99.90;;;;;;5072192;28;20168;-58
2022/10/02 08:22:40;;;;;;;13.47;2.50;;;12.20;99.90;;;;;;5072300;28;20233;-57
2022/10/02 08:25:27;;;;;;;15.13;2.13;;;13.00;99.90;;;;;;5062147;28;20252;-57
2022/10/02 08:28:03;;;;;;;22.13;2.87;;;13.00;99.90;;;;;;5071272;28;20206;-56
2022/10/02 08:30:29;;;;;;;18.63;2.30;;;;;;;;;;5072231;28;20199;-56
2022/10/02 08:32:55;;;;;;;16.37;2.17;;;13.30;99.90;;;;;;5070363;28;20630;-54
2022/10/02 08:35:31;;;;;;;22.17;2.40;;;13.10;99.90;;;;;;5069757;28;20273;-56
2022/10/02 08:38:26;;;;;;;20.83;2.60;;;13.00;99.90;;;;;;5072053;28;20244;-55
2022/10/02 08:40:52;;;;;;;14.90;2.97;;;;;;;;;;5071155;28;20715;-55
2022/10/02 08:43:52;;;;;;;15.87;2.20;;;13.30;99.90;;;;;;5071876;28;20263;-55
2022/10/02 08:46:57;;;;;;;14.50;2.73;;;13.50;99.90;;;;;;5070549;28;20245;-55
2022/10/02 08:49:51;;;;;;;13.48;4.68;;;13.30;99.90;;;;;;5071846;28;20180;-55
2022/10/02 08:52:41;;;;;;;16.70;3.50;;;13.70;99.90;;;;;;5069860;28;20211;-55
2022/10/02 08:55:08;;;;;;;18.40;2.67;;;;;;;;;;5071740;28;20212;-57
2022/10/02 08:57:55;;;;;;;9.38;2.42;;;13.90;99.90;;;;;;5071174;28;20191;-56
2022/10/02 09:00:29;;;;;;;18.70;2.58;;;13.90;99.90;;;;;;5070926;28;20712;-56
2022/10/02 09:03:23;;;;;;;9.20;2.00;;;14.00;99.90;;;;;;5059424;28;20187;-56
2022/10/02 09:06:22;;;;;;;14.05;2.22;;;14.00;99.90;;;;;;5059954;28;20658;-56
2022/10/02 09:09:22;;;;;;;15.63;2.80;;;14.20;99.90;;;;;;5059662;28;20176;-57
2022/10/02 09:11:49;;;;;;;20.35;2.53;;;;;;;;;;5060668;28;20220;-56
2022/10/02 09:14:27;;;;;;;12.43;2.35;;;14.80;99.90;;;;;;5054760;28;20209;-55
2022/10/02 09:17:14;;;;;;;15.18;2.67;;;15.00;99.90;;;;;;5051317;28;20205;-55
2022/10/02 09:19:46;;;;;;;9.93;2.30;;;13.70;99.90;;;;;;5067116;28;20173;-55
2022/10/02 09:22:46;;;;;;;13.15;2.05;;;15.50;99.90;;;;;;5062786;28;20647;-55
2022/10/02 09:25:21;;;;;;;13.95;2.30;;;15.60;99.90;;;;;;5052419;28;20188;-54
2022/10/02 09:28:10;;;;;;;14.27;2.33;;;16.00;99.90;;;;;;5071210;28;20172;-55
2022/10/02 09:31:06;;;;;;;17.02;2.38;;;15.80;99.90;;;;;;5069769;28;20183;-56
2022/10/02 09:33:51;;;;;;;16.60;2.58;;;15.50;99.90;;;;;;5049396;28;20540;-56
2022/10/02 09:37:03;;;;;;;13.68;2.08;;;15.40;99.90;;;;;;5051345;28;20181;-56
2022/10/02 09:39:35;;;;;;;11.23;2.10;;;15.40;99.90;;;;;;4950723;29;20267;-54
2022/10/02 09:42:04;;;;;;;14.07;1.95;;;15.40;99.90;;;;;;4961144;28;20183;-54
2022/10/02 09:44:48;;;;;;;14.13;2.50;;;16.30;99.90;;;;;;5017954;28;20243;-54
2022/10/02 09:47:48;;;;;;;13.13;2.33;;;16.20;99.90;;;;;;5050733;28;20199;-53
2022/10/02 09:50:40;;;;;;;10.60;2.03;;;16.30;99.90;;;;;;5050852;28;20227;-54
2022/10/02 09:53:27;;;;;;;14.75;2.50;;;17.70;99.90;;;;;;5050331;28;20172;-54
2022/10/02 09:56:14;;;;;;;17.48;2.30;;;18.60;99.90;;;;;;5050940;28;20278;-53
2022/10/02 09:58:42;;;;;;;14.35;2.20;;;18.20;99.90;;;;;;5050806;28;20632;-54
2022/10/02 10:01:11;;;;;;;19.17;2.88;;;18.20;99.90;;;;;;5060137;28;20195;-53
2022/10/02 10:04:01;;;;;;;15.52;2.45;;;18.10;99.90;;;;;;5060273;28;20260;-54
2022/10/02 10:06:37;;;;;;;11.23;2.03;;;18.20;99.90;;;;;;5050587;28;20165;-54
2022/10/02 10:09:15;;;;;;;15.27;3.05;;;18.10;99.90;;;;;;5064347;28;20194;-54
2022/10/02 10:11:53;;;;;;;11.27;2.35;;;19.10;99.90;;;;;;5058012;28;20212;-53
2022/10/02 10:14:28;;;;;;;16.38;2.80;;;19.80;99.90;;;;;;5057142;28;20220;-52
2022/10/02 10:16:54;;;;;;;10.48;2.53;;;;;;;;;;5050313;28;20176;-53
2022/10/02 10:19:47;;;;;;;12.40;2.20;;;19.00;99.90;;;;;;5056250;28;20230;-53
2022/10/02 10:22:50;;;;;;;12.60;2.28;;;19.00;99.90;;;;;;5055225;28;20185;-53
2022/10/02 10:25:53;;;;;;;8.57;1.92;;;19.50;99.90;;;;;;5053731;28;20181;-54
2022/10/02 10:28:19;;;;;;;12.52;2.13;;;22.20;99.90;;;;;;5057556;28;20661;-54
2022/10/02 10:31:38;;;;;;;11.00;2.15;;;22.30;99.90;;;;;;5064906;28;20173;-54
2022/10/02 10:34:32;;;;;;;14.52;2.40;;;22.00;99.90;;;;;;4974739;28;20195;-54
2022/10/02 10:40:04;;;;;;;11.85;2.25;;;20.10;99.90;;;;;;5068391;28;20179;-54
2022/10/02 10:43:09;;;;;;;15.32;2.17;;;20.20;99.90;;;;;;5069086;28;20177;-54
2022/10/02 10:45:52;;;;;;;13.35;2.38;;;21.30;99.90;;;;;;5059720;28;20667;-54
2022/10/02 10:48:44;;;;;;;11.63;2.25;;;20.10;99.90;;;;;;5069865;28;20172;-55
2022/10/02 10:51:40;;;;;;;10.27;2.20;;;20.50;99.90;;;;;;5050280;28;20181;-53
2022/10/02 10:54:14;;;;;;;14.85;1.95;;;21.60;99.90;;;;;;5058561;28;20211;-54
2022/10/02 10:56:45;;;;;;;10.93;2.35;;;22.00;99.90;;;;;;5069817;28;20172;-54
2022/10/02 10:59:22;;;;;;;10.20;2.03;;;22.60;99.90;;;;;;5069751;28;20173;-53
2022/10/02 11:02:19;;;;;;;16.08;2.25;;;24.20;99.90;;;;;;5070182;28;20183;-54
2022/10/02 11:05:19;;;;;;;9.98;2.38;;;26.30;99.90;;;;;;5071523;28;20679;-54
2022/10/02 11:08:21;;;;;;;13.68;2.35;;;26.90;99.90;;;;;;5073846;28;20176;-54
2022/10/02 11:11:09;;;;;;;8.80;2.30;;;26.90;99.90;;;;;;5063769;28;20275;-54
2022/10/02 11:14:06;;;;;;;9.07;2.20;;;28.20;99.90;;;;;;5059842;28;20185;-54
2022/10/02 11:16:43;;;;;;;9.85;2.30;;;27.60;99.90;;;;;;5071444;28;20602;-54
2022/10/02 11:19:35;;;;;;;10.65;2.65;;;27.60;99.90;;;;;;5070449;28;20180;-54
2022/10/02 11:22:10;;;;;;;11.05;2.72;;;28.40;99.90;;;;;;5042120;28;20263;-55
2022/10/02 11:24:54;;;;;;;7.95;2.05;;;28.90;99.90;;;;;;5071977;28;20751;-55
2022/10/02 11:27:33;;;;;;;8.73;2.47;;;29.40;99.90;;;;;;5065403;28;20175;-58
2022/10/02 11:30:23;;;;;;;8.93;2.30;;;29.70;99.90;;;;;;5073244;28;20267;-55
2022/10/02 11:33:09;;;;;;;7.30;2.38;;;29.50;99.90;;;;;;5071786;28;20200;-54
2022/10/02 11:35:47;;;;;;;10.07;2.28;;;29.30;99.90;;;;;;5053400;28;20192;-55
2022/10/02 11:38:16;;;;;;;13.55;2.33;;;29.10;99.90;;;;;;5071119;28;20183;-53
2022/10/02 11:40:57;;;;;;;9.13;2.33;;;30.10;99.90;;;;;;5054964;28;20282;-54
2022/10/02 11:43:45;;;;;;;12.32;2.05;;;29.10;99.90;;;;;;5052834;28;20160;-54
2022/10/02 11:46:51;;;;;;;8.50;2.13;;;29.40;99.90;;;;;;5057009;28;20192;-54
2022/10/02 11:49:23;;;;;;;7.57;2.10;;;29.30;99.90;;;;;;5069547;28;20218;-55
2022/10/02 11:52:20;;;;;;;7.97;1.98;;;29.50;99.90;;;;;;5071949;28;20172;-53
2022/10/02 11:54:55;;;;;;;7.28;2.50;;;30.30;99.90;;;;;;5070627;28;20187;-53
2022/10/02 11:57:33;;;;;;;7.82;2.03;;;30.30;99.90;;;;;;5059940;28;20167;-53
2022/10/02 12:00:28;;;;;;;14.20;2.50;;;29.80;99.90;;;;;;5057853;28;20184;-54
2022/10/02 12:03:00;;;;;;;8.30;2.10;;;29.60;99.90;;;;;;5052502;28;20180;-53
2022/10/02 12:05:55;;;;;;;6.30;2.00;;;28.30;99.90;;;;;;5051659;28;20250;-55
2022/10/02 12:08:56;;;;;;;6.50;2.20;;;29.60;99.90;;;;;;5052326;28;20204;-55
2022/10/02 12:11:34;;;;;;;10.52;2.17;;;30.00;99.90;;;;;;5051988;28;20227;-55
2022/10/02 12:14:15;;;;;;;6.95;1.92;;;30.10;99.90;;;;;;5068729;28;20262;-55
2022/10/02 12:16:50;;;;;;;8.23;1.83;;;29.90;99.90;;;;;;5069722;28;20172;-55
2022/10/02 12:19:32;;;;;;;9.30;2.63;;;29.30;99.90;;;;;;5062115;28;20176;-55
2022/10/02 12:28:23;;;;;;;8.30;2.35;;;30.80;99.90;;;;;;5072382;28;20182;-54
2022/10/02 12:31:05;;;;;;;7.50;2.00;;;30.40;99.90;;;;;;5050997;28;20337;-55
2022/10/02 12:33:41;;;;;;;8.02;1.77;;;29.10;99.90;;;;;;5052413;28;20191;-54
2022/10/02 12:36:23;;;;;;;7.32;1.80;;;28.30;99.90;;;;;;5058748;28;20176;-54
2022/10/02 12:38:58;;;;;;;9.70;2.35;;;27.90;99.90;;;;;;5070241;28;20191;-54
2022/10/02 12:42:02;;;;;;;8.57;1.92;;;28.50;99.90;;;;;;5071746;28;20721;-54
2022/10/02 12:45:01;;;;;;;6.38;1.65;;;28.10;99.90;;;;;;5070848;28;20215;-54
2022/10/02 12:47:34;;;;;;;5.63;1.42;;;28.00;99.90;;;;;;5055499;28;20630;-54
2022/10/02 12:50:19;;;;;;;7.55;1.77;;;26.10;99.90;;;;;;5071891;28;20233;-54
2022/10/02 12:53:03;;;;;;;8.80;2.00;;;24.30;99.90;;;;;;5071402;28;20168;-54
2022/10/02 12:56:13;;;;;;;7.07;1.98;;;24.30;99.90;;;;;;5071272;28;20195;-54
2022/10/02 12:58:57;;;;;;;9.63;2.03;;;23.50;99.90;;;;;;5070879;28;20233;-54
2022/10/02 13:01:43;;;;;;;8.32;1.95;;;22.40;99.90;;;;;;5070026;28;20251;-54
2022/10/02 13:04:50;;;;;;;10.18;2.00;;;22.50;99.90;;;;;;5065543;28;20220;-54
2022/10/02 13:07:24;;;;;;;9.10;2.55;;;22.50;99.90;;;;;;5054801;28;20196;-54
2022/10/02 13:10:02;;;;;;;10.13;1.80;;;22.30;99.90;;;;;;5071367;28;20224;-54
2022/10/02 13:13:06;;;;;;;6.22;1.75;;;23.00;99.90;;;;;;5055851;28;20291;-54
2022/10/02 13:15:57;;;;;;;9.25;1.88;;;22.60;99.90;;;;;;5051077;28;20183;-54
2022/10/02 13:18:57;;;;;;;8.43;1.67;;;23.30;99.90;;;;;;5065679;28;20650;-54
2022/10/02 13:21:41;;;;;;;7.97;1.98;;;23.30;99.90;;;;;;5071200;28;20197;-54
2022/10/02 13:24:34;;;;;;;8.68;2.00;;;23.20;99.90;;;;;;5060942;28;20223;-54
2022/10/02 13:27:15;;;;;;;8.80;1.65;;;23.90;99.90;;;;;;5051077;28;20189;-55
2022/10/02 13:30:20;;;;;;;8.55;1.85;;;23.90;99.90;;;;;;5050451;28;20169;-54
2022/10/02 13:33:09;;;;;;;9.40;2.08;;;25.00;99.90;;;;;;4989636;28;20175;-55
2022/10/02 13:36:07;;;;;;;11.45;1.70;;;26.60;99.90;;;;;;4989772;28;20187;-55
2022/10/02 13:38:52;;;;;;;8.27;1.90;;;27.30;99.90;;;;;;5042062;28;20189;-55
2022/10/02 13:41:20;;;;;;;6.10;1.75;;;27.60;99.90;;;;;;5051131;28;20174;-54
2022/10/02 13:44:03;;;;;;;10.80;2.00;;;27.00;99.90;;;;;;5050974;28;20644;-54
2022/10/02 13:46:58;;;;;;;5.13;1.70;;;26.50;99.90;;;;;;5050935;28;20199;-55
2022/10/02 13:50:04;;;;;;;10.40;2.40;;;27.20;99.90;;;;;;4996649;28;20198;-54
2022/10/02 13:52:47;;;;;;;6.90;1.63;;;27.70;99.90;;;;;;5058750;28;20685;-54
2022/10/02 13:55:13;;;;;;;18.30;1.83;;;27.40;99.90;;;;;;5071045;28;20187;-54
2022/10/02 13:57:54;;;;;;;8.32;1.98;;;26.00;99.90;;;;;;5070126;28;20176;-57
2022/10/02 14:00:53;;;;;;;10.32;2.05;;;26.40;99.90;;;;;;5068110;28;20724;-57
2022/10/02 14:03:53;;;;;;;6.20;1.80;;;27.50;99.90;;;;;;5060469;28;20184;-57
2022/10/02 14:06:50;;;;;;;9.85;2.72;;;28.10;99.90;;;;;;5070549;28;20252;-57
2022/10/02 14:09:34;;;;;;;6.40;1.58;;;29.30;99.90;;;;;;5065015;28;20271;-57